Time;durP1;ratioP1;P1;durP2;ratioP2;P2;SDS_P1;SDS_P2;PMS_P1;PMS_P2;Temp;Humidity;BMP_temperature;BMP_pressure;BME280_temperature;BME280_humidity;BME280_pressure;Samples;Min_cycle;Max_cycle;Signal;HPM_P1;HPM_P2
2023/08/31 00:00:47;;;;;;;0.80;0.80;;;;;12.50;95499.00;;;;5135619;27;20611;-62
2023/08/31 00:03:14;;;;;;;0.77;0.77;;;;;12.40;95500.00;;;;5135642;27;20193;-62
2023/08/31 00:05:43;;;;;;;1.17;1.00;;;;;12.40;95503.00;;;;5135710;27;20572;-62
2023/08/31 00:08:11;;;;;;;0.60;0.60;;;;;12.30;95505.00;;;;5134382;27;20197;-62
2023/08/31 00:10:39;;;;;;;0.50;0.50;;;;;12.30;95517.00;;;;5135780;27;20195;-62
2023/08/31 00:13:07;;;;;;;1.80;1.70;;;;;12.00;95515.00;;;;5135751;27;20269;-62
2023/08/31 00:15:35;;;;;;;2.03;1.60;;;;;12.20;95518.00;;;;5135543;27;20318;-62
2023/08/31 00:18:04;;;;;;;2.03;1.40;;;;;12.00;95508.00;;;;5135108;27;20244;-62
2023/08/31 00:20:33;;;;;;;0.73;0.73;;;;;12.00;95510.00;;;;5135180;27;20200;-62
2023/08/31 00:23:00;;;;;;;1.37;1.27;;;;;12.10;95522.00;;;;5135390;27;20625;-62
2023/08/31 00:25:28;;;;;;;1.10;1.10;;;;;12.10;95519.00;;;;5135190;27;20194;-62
2023/08/31 00:27:56;;;;;;;0.80;0.80;;;;;12.10;95513.00;;;;5135319;27;20205;-62
2023/08/31 00:30:25;;;;;;;0.60;0.60;;;;;12.00;95516.00;;;;5134692;27;20196;-62
2023/08/31 00:32:53;;;;;;;0.80;0.80;;;;;12.10;95514.00;;;;5135020;27;20270;-62
2023/08/31 00:35:22;;;;;;;0.60;0.60;;;;;12.10;95513.00;;;;5133663;27;20197;-62
2023/08/31 00:37:51;;;;;;;0.77;0.77;;;;;12.10;95504.00;;;;5134912;27;20205;-62
2023/08/31 00:40:21;;;;;;;0.70;0.70;;;;;11.90;95499.00;;;;5135294;27;20215;-62
2023/08/31 00:42:49;;;;;;;0.83;0.83;;;;;12.00;95502.00;;;;5134743;27;20238;-62
2023/08/31 00:45:16;;;;;;;0.50;0.50;;;;;11.90;95497.00;;;;5134671;27;20193;-62
2023/08/31 00:47:44;;;;;;;0.83;0.83;;;;;11.80;95505.00;;;;5134689;27;20216;-62
2023/08/31 00:50:11;;;;;;;0.80;0.80;;;;;11.80;95503.00;;;;5134962;27;20581;-62
2023/08/31 00:52:41;;;;;;;1.10;1.10;;;;;11.70;95502.00;;;;5134677;27;20204;-62
2023/08/31 00:55:09;;;;;;;1.17;1.17;;;;;11.60;95513.00;;;;5134698;27;20242;-62
2023/08/31 00:57:37;;;;;;;0.90;0.90;;;;;11.70;95513.00;;;;5134340;27;20209;-62
2023/08/31 01:00:07;;;;;;;0.77;0.77;;;;;11.70;95509.00;;;;5134749;27;20261;-62
2023/08/31 01:02:43;;;;;;;0.97;0.97;;;;;11.80;95509.00;;;;5134373;27;20246;-62
2023/08/31 01:05:26;;;;;;;1.00;1.00;;;;;11.80;95489.00;;;;5134399;27;20230;-62
2023/08/31 01:08:03;;;;;;;0.50;0.50;;;;;11.70;95518.00;;;;5134405;27;20307;-62
2023/08/31 01:10:38;;;;;;;0.50;0.50;;;;;11.60;95516.00;;;;5134696;27;20592;-62
2023/08/31 01:13:13;;;;;;;0.80;0.80;;;;;11.60;95520.00;;;;5133096;27;20193;-62
2023/08/31 01:15:46;;;;;;;0.80;0.80;;;;;11.50;95526.00;;;;5134424;27;20169;-62
2023/08/31 01:18:17;;;;;;;0.57;0.57;;;;;11.40;95516.00;;;;5134261;27;20208;-62
2023/08/31 01:20:52;;;;;;;0.70;0.70;;;;;11.40;95513.00;;;;5134605;27;20177;-62
2023/08/31 01:23:22;;;;;;;0.63;0.63;;;;;11.30;95520.00;;;;5134481;27;20184;-62
2023/08/31 01:25:52;;;;;;;1.27;1.17;;;;;11.30;95527.00;;;;5134139;27;20220;-62
2023/08/31 01:28:19;;;;;;;1.00;1.00;;;;;11.30;95529.00;;;;5134117;27;20196;-62
2023/08/31 01:30:47;;;;;;;0.80;0.80;;;;;11.30;95531.00;;;;5134057;27;20197;-62
2023/08/31 01:33:15;;;;;;;0.97;0.90;;;;;11.40;95529.00;;;;5134149;27;20221;-62
2023/08/31 01:35:47;;;;;;;0.50;0.50;;;;;11.40;95531.00;;;;5134003;27;20189;-62
2023/08/31 01:38:21;;;;;;;0.93;0.93;;;;;11.50;95539.00;;;;5134356;28;20201;-62
2023/08/31 01:40:55;;;;;;;0.90;0.90;;;;;11.50;95531.00;;;;5134209;27;20268;-62
2023/08/31 01:43:24;;;;;;;1.27;1.17;;;;;11.60;95530.00;;;;5134239;28;20185;-62
2023/08/31 01:45:52;;;;;;;0.60;0.60;;;;;11.50;95531.00;;;;5134393;28;20215;-62
2023/08/31 01:48:20;;;;;;;0.60;0.60;;;;;11.60;95534.00;;;;5134765;28;20190;-62
2023/08/31 01:50:48;;;;;;;0.50;0.50;;;;;11.70;95529.00;;;;5134195;28;20549;-62
2023/08/31 01:53:15;;;;;;;0.50;0.50;;;;;11.50;95542.00;;;;5133933;28;20194;-62
2023/08/31 01:55:42;;;;;;;0.67;0.67;;;;;11.40;95545.00;;;;5133821;28;20194;-62
2023/08/31 01:58:11;;;;;;;0.70;0.70;;;;;11.50;95544.00;;;;5133943;28;20203;-62
2023/08/31 02:00:38;;;;;;;0.60;0.60;;;;;11.40;95545.00;;;;5133813;28;20251;-63
2023/08/31 02:03:07;;;;;;;0.73;0.73;;;;;11.50;95550.00;;;;5133778;28;20657;-62
2023/08/31 02:05:35;;;;;;;0.93;0.93;;;;;11.60;95549.00;;;;5133647;28;20680;-62
2023/08/31 02:08:02;;;;;;;0.60;0.60;;;;;11.70;95538.00;;;;5133658;28;20629;-62
2023/08/31 02:10:30;;;;;;;0.70;0.70;;;;;11.60;95537.00;;;;5133724;28;20186;-62
2023/08/31 02:12:57;;;;;;;1.10;1.10;;;;;11.60;95545.00;;;;5133954;28;20193;-62
2023/08/31 02:15:26;;;;;;;0.60;0.60;;;;;11.60;95546.00;;;;5133608;28;20652;-63
2023/08/31 02:17:55;;;;;;;0.70;0.70;;;;;11.50;95542.00;;;;5133620;28;20205;-63
2023/08/31 02:20:22;;;;;;;1.70;0.90;;;;;11.50;95540.00;;;;5133744;28;20300;-62
2023/08/31 02:22:50;;;;;;;0.70;0.70;;;;;11.60;95545.00;;;;5134120;28;20189;-62
2023/08/31 02:25:17;;;;;;;1.20;1.10;;;;;11.60;95544.00;;;;5133611;28;20266;-62
2023/08/31 02:27:45;;;;;;;0.83;0.83;;;;;11.60;95551.00;;;;5133472;28;20216;-62
2023/08/31 02:30:12;;;;;;;0.80;0.80;;;;;11.60;95558.00;;;;5133597;28;20190;-62
2023/08/31 02:32:41;;;;;;;0.60;0.60;;;;;11.70;95553.00;;;;5133519;28;20194;-62
2023/08/31 02:35:09;;;;;;;0.90;0.90;;;;;11.70;95552.00;;;;5132782;28;20197;-62
2023/08/31 02:37:37;;;;;;;0.60;0.60;;;;;11.60;95550.00;;;;5133618;28;20288;-62
2023/08/31 02:40:06;;;;;;;0.80;0.80;;;;;11.60;95557.00;;;;5134119;28;20214;-62
2023/08/31 02:42:33;;;;;;;0.80;0.80;;;;;11.60;95559.00;;;;5133510;28;20193;-62
2023/08/31 02:45:00;;;;;;;0.60;0.60;;;;;11.70;95557.00;;;;5133653;28;20225;-62
2023/08/31 02:47:28;;;;;;;0.60;0.60;;;;;11.60;95560.00;;;;5133252;28;20209;-62
2023/08/31 02:49:57;;;;;;;0.90;0.90;;;;;11.30;95549.00;;;;5133911;28;20186;-62
2023/08/31 02:52:24;;;;;;;0.77;0.77;;;;;11.40;95555.00;;;;5133361;27;20193;-62
2023/08/31 02:54:51;;;;;;;0.60;0.60;;;;;11.40;95560.00;;;;5136936;27;20186;-63
2023/08/31 02:57:19;;;;;;;0.60;0.60;;;;;11.30;95552.00;;;;5137259;27;20538;-62
2023/08/31 02:59:50;;;;;;;1.13;1.13;;;;;11.30;95559.00;;;;5137060;27;20217;-62
2023/08/31 03:02:17;;;;;;;0.70;0.70;;;;;11.20;95558.00;;;;5135462;27;20188;-62
2023/08/31 03:04:45;;;;;;;0.80;0.80;;;;;11.20;95562.00;;;;5137360;27;20205;-62
2023/08/31 03:07:15;;;;;;;0.80;0.80;;;;;11.20;95565.00;;;;5136804;27;20216;-62
2023/08/31 03:09:42;;;;;;;0.63;0.63;;;;;11.20;95565.00;;;;5136830;27;20186;-62
2023/08/31 03:12:09;;;;;;;0.60;0.60;;;;;11.40;95565.00;;;;5136871;27;20651;-62
2023/08/31 03:14:37;;;;;;;0.50;0.50;;;;;11.40;95563.00;;;;5135367;27;20601;-62
2023/08/31 03:17:04;;;;;;;0.93;0.93;;;;;11.40;95568.00;;;;5136508;27;20279;-62
2023/08/31 03:19:32;;;;;;;0.70;0.70;;;;;11.50;95562.00;;;;5136841;27;20221;-62
2023/08/31 03:21:59;;;;;;;0.83;0.83;;;;;11.50;95566.00;;;;5136516;27;20197;-62
2023/08/31 03:24:28;;;;;;;0.80;0.80;;;;;11.50;95556.00;;;;5136993;27;20273;-62
2023/08/31 03:26:55;;;;;;;0.90;0.90;;;;;11.50;95556.00;;;;5136424;27;20579;-62
2023/08/31 03:29:22;;;;;;;1.60;1.50;;;;;11.50;95567.00;;;;5136788;27;20196;-62
2023/08/31 03:31:50;;;;;;;0.53;0.53;;;;;11.60;95541.00;;;;5134888;27;20262;-62
2023/08/31 03:34:17;;;;;;;1.07;1.07;;;;;11.40;95565.00;;;;5136224;27;20197;-62
2023/08/31 03:36:45;;;;;;;0.70;0.70;;;;;11.40;95574.00;;;;5136058;27;20255;-62
2023/08/31 03:39:12;;;;;;;0.90;0.90;;;;;11.40;95582.00;;;;5135943;27;20217;-62
2023/08/31 03:41:41;;;;;;;0.70;0.70;;;;;11.40;95570.00;;;;5136088;27;20200;-62
2023/08/31 03:44:08;;;;;;;1.13;1.13;;;;;11.50;95578.00;;;;5135949;27;20205;-62
2023/08/31 03:46:35;;;;;;;0.60;0.60;;;;;11.50;95574.00;;;;5136192;27;20548;-62
2023/08/31 03:49:03;;;;;;;0.80;0.80;;;;;11.50;95573.00;;;;5136139;27;20201;-62
2023/08/31 03:51:30;;;;;;;0.70;0.70;;;;;11.50;95580.00;;;;5135852;27;20228;-63
2023/08/31 03:53:57;;;;;;;0.67;0.67;;;;;11.60;95581.00;;;;5135711;27;20192;-62
2023/08/31 03:56:25;;;;;;;0.80;0.80;;;;;11.50;95573.00;;;;5135625;27;20228;-62
2023/08/31 03:58:53;;;;;;;0.80;0.80;;;;;11.60;95585.00;;;;5135617;27;20189;-62
2023/08/31 04:01:21;;;;;;;0.70;0.70;;;;;11.50;95588.00;;;;5135650;27;20197;-62
2023/08/31 04:03:48;;;;;;;0.70;0.70;;;;;11.60;95588.00;;;;5135189;27;20190;-62
2023/08/31 04:06:16;;;;;;;1.10;1.10;;;;;11.50;95590.00;;;;5135762;27;20216;-62
2023/08/31 04:08:43;;;;;;;0.90;0.90;;;;;11.40;95598.00;;;;5135691;27;20681;-62
2023/08/31 04:11:10;;;;;;;0.60;0.60;;;;;11.50;95600.00;;;;5135722;27;20185;-62
2023/08/31 04:13:37;;;;;;;0.60;0.60;;;;;11.40;95591.00;;;;5135645;27;20185;-62
2023/08/31 04:16:06;;;;;;;1.73;1.63;;;;;11.50;95592.00;;;;5135358;27;20209;-62
2023/08/31 04:18:34;;;;;;;0.80;0.80;;;;;11.50;95595.00;;;;5135253;27;20194;-62
2023/08/31 04:21:03;;;;;;;0.53;0.53;;;;;11.50;95598.00;;;;5135346;27;20553;-62
2023/08/31 04:23:30;;;;;;;2.43;1.00;;;;;11.50;95604.00;;;;5135154;27;20669;-62
2023/08/31 04:25:59;;;;;;;0.90;0.90;;;;;11.50;95601.00;;;;5133770;27;20200;-62
2023/08/31 04:28:26;;;;;;;0.70;0.70;;;;;11.50;95594.00;;;;5135147;27;20189;-63
2023/08/31 04:30:53;;;;;;;0.80;0.80;;;;;11.50;95599.00;;;;5135007;27;20189;-63
2023/08/31 04:33:22;;;;;;;0.60;0.60;;;;;11.40;95595.00;;;;5134986;27;20193;-62
2023/08/31 04:35:50;;;;;;;1.33;1.23;;;;;11.40;95603.00;;;;5134831;27;20189;-63
2023/08/31 04:38:17;;;;;;;0.97;0.97;;;;;11.50;95604.00;;;;5134822;27;20225;-62
2023/08/31 04:40:45;;;;;;;1.53;1.43;;;;;11.50;95605.00;;;;5134755;27;20763;-61
2023/08/31 04:43:12;;;;;;;0.70;0.70;;;;;11.50;95599.00;;;;5134775;27;20201;-61
2023/08/31 04:45:39;;;;;;;0.83;0.83;;;;;11.40;95603.00;;;;5135217;27;20182;-61
2023/08/31 04:48:07;;;;;;;0.67;0.67;;;;;11.50;95604.00;;;;5134827;27;20660;-61
2023/08/31 04:50:36;;;;;;;1.20;1.20;;;;;11.40;95615.00;;;;5134548;27;20186;-61
2023/08/31 04:53:04;;;;;;;1.17;1.17;;;;;11.50;95617.00;;;;5134645;27;20192;-61
2023/08/31 04:55:31;;;;;;;1.17;1.10;;;;;11.40;95616.00;;;;5134509;27;20189;-61
2023/08/31 04:57:59;;;;;;;0.70;0.70;;;;;11.40;95613.00;;;;5134374;27;20210;-61
2023/08/31 05:00:27;;;;;;;0.63;0.63;;;;;11.40;95614.00;;;;5135084;27;20232;-62
2023/08/31 05:02:54;;;;;;;1.40;1.37;;;;;11.40;95610.00;;;;5135130;27;20201;-62
2023/08/31 05:05:22;;;;;;;0.90;0.90;;;;;11.40;95614.00;;;;5134555;27;20544;-62
2023/08/31 05:07:51;;;;;;;1.73;1.63;;;;;11.40;95628.00;;;;5134428;27;20217;-62
2023/08/31 05:10:18;;;;;;;2.00;1.87;;;;;11.50;95637.00;;;;5135077;27;20637;-62
2023/08/31 05:12:45;;;;;;;0.97;0.97;;;;;11.50;95641.00;;;;5134669;27;20185;-62
2023/08/31 05:15:13;;;;;;;1.27;1.20;;;;;11.50;95646.00;;;;5134257;27;20544;-62
2023/08/31 05:17:40;;;;;;;0.80;0.80;;;;;11.60;95648.00;;;;5134187;27;20278;-63
2023/08/31 05:20:09;;;;;;;1.37;1.27;;;;;11.60;95644.00;;;;5134626;27;20243;-62
2023/08/31 05:22:37;;;;;;;0.50;0.50;;;;;11.70;95646.00;;;;5134387;27;20231;-62
2023/08/31 05:25:06;;;;;;;1.20;1.20;;;;;11.80;95640.00;;;;5134973;27;20235;-62
2023/08/31 05:27:34;;;;;;;0.70;0.70;;;;;11.80;95651.00;;;;5134523;27;20216;-63
2023/08/31 05:30:01;;;;;;;0.70;0.70;;;;;11.80;95652.00;;;;5135113;27;20193;-62
2023/08/31 05:32:30;;;;;;;0.87;0.87;;;;;11.80;95655.00;;;;5134946;27;20196;-62
2023/08/31 05:34:58;;;;;;;0.60;0.60;;;;;11.70;95654.00;;;;5134503;27;20225;-62
2023/08/31 05:37:25;;;;;;;0.90;0.90;;;;;11.70;95656.00;;;;5132971;27;20607;-62
2023/08/31 05:39:53;;;;;;;0.57;0.57;;;;;11.40;95663.00;;;;5134486;28;20213;-62
2023/08/31 05:42:22;;;;;;;0.67;0.67;;;;;11.60;95664.00;;;;5134410;28;20197;-62
2023/08/31 05:44:49;;;;;;;1.97;0.80;;;;;11.50;95671.00;;;;5134332;28;20193;-61
2023/08/31 05:47:17;;;;;;;0.70;0.70;;;;;11.70;95669.00;;;;5134417;28;20213;-61
2023/08/31 05:49:44;;;;;;;1.13;1.03;;;;;11.70;95667.00;;;;5134286;28;20524;-62
2023/08/31 05:52:11;;;;;;;1.50;0.70;;;;;11.70;95668.00;;;;5134062;28;20293;-62
2023/08/31 05:54:39;;;;;;;0.80;0.80;;;;;11.70;95664.00;;;;5133955;28;20192;-62
2023/08/31 05:57:06;;;;;;;0.77;0.77;;;;;11.80;95672.00;;;;5134116;28;20572;-62
2023/08/31 05:59:35;;;;;;;2.30;0.90;;;;;12.00;95673.00;;;;5133709;28;20236;-61
2023/08/31 06:02:04;;;;;;;0.60;0.60;;;;;12.00;95663.00;;;;5133682;28;20533;-61
2023/08/31 06:04:32;;;;;;;0.60;0.60;;;;;12.10;95683.00;;;;5133817;27;20251;-61
2023/08/31 06:06:59;;;;;;;0.70;0.70;;;;;12.30;95686.00;;;;5133741;28;20262;-61
2023/08/31 06:09:27;;;;;;;0.60;0.60;;;;;12.40;95688.00;;;;5134205;28;20613;-61
2023/08/31 06:11:54;;;;;;;0.67;0.67;;;;;12.50;95691.00;;;;5133944;28;20276;-61
2023/08/31 06:14:21;;;;;;;1.00;1.00;;;;;12.50;95693.00;;;;5131374;28;20624;-62
2023/08/31 06:16:52;;;;;;;1.03;1.03;;;;;12.70;95683.00;;;;5129452;28;20244;-64
2023/08/31 06:19:20;;;;;;;0.60;0.60;;;;;12.70;95676.00;;;;5131113;28;20194;-65
2023/08/31 06:21:48;;;;;;;0.70;0.70;;;;;12.80;95679.00;;;;5132164;28;20205;-64
2023/08/31 06:24:15;;;;;;;1.00;1.00;;;;;12.80;95682.00;;;;5132309;28;20222;-64
2023/08/31 06:26:43;;;;;;;0.60;0.60;;;;;12.90;95673.00;;;;5132315;27;20628;-64
2023/08/31 06:29:11;;;;;;;0.90;0.90;;;;;12.90;95688.00;;;;5134269;27;20189;-64
2023/08/31 06:31:38;;;;;;;0.90;0.90;;;;;13.00;95688.00;;;;5135800;27;20196;-64
2023/08/31 06:34:07;;;;;;;0.87;0.87;;;;;13.00;95696.00;;;;5134249;27;20189;-62
2023/08/31 06:36:35;;;;;;;0.73;0.73;;;;;13.10;95703.00;;;;5134646;27;20209;-62
2023/08/31 06:39:04;;;;;;;0.80;0.80;;;;;13.20;95719.00;;;;5135539;27;20208;-62
2023/08/31 06:41:31;;;;;;;1.17;1.10;;;;;12.90;95714.00;;;;5135560;27;20624;-62
2023/08/31 06:43:59;;;;;;;0.70;0.70;;;;;12.90;95716.00;;;;5135072;27;20204;-62
2023/08/31 06:46:27;;;;;;;1.10;1.10;;;;;12.90;95704.00;;;;5134627;27;20583;-62
2023/08/31 06:48:55;;;;;;;0.93;0.90;;;;;12.90;95700.00;;;;5135081;27;20545;-62
2023/08/31 06:51:24;;;;;;;0.77;0.77;;;;;13.00;95699.00;;;;5135515;27;20190;-62
2023/08/31 06:53:54;;;;;;;0.50;0.50;;;;;13.20;95699.00;;;;5133684;27;20268;-62
2023/08/31 06:56:22;;;;;;;1.23;0.90;;;;;13.20;95704.00;;;;5135555;27;20240;-63
2023/08/31 06:58:49;;;;;;;0.60;0.60;;;;;13.40;95707.00;;;;5134600;27;20659;-62
2023/08/31 07:01:16;;;;;;;1.10;1.00;;;;;13.40;95707.00;;;;5135010;27;20213;-62
2023/08/31 07:03:44;;;;;;;0.77;0.77;;;;;13.70;95716.00;;;;5135145;27;20229;-62
2023/08/31 07:06:11;;;;;;;1.10;1.10;;;;;13.70;95710.00;;;;5134246;27;20227;-62
2023/08/31 07:08:41;;;;;;;0.97;0.97;;;;;13.80;95707.00;;;;5134887;27;20190;-63
2023/08/31 07:11:09;;;;;;;0.60;0.60;;;;;13.80;95709.00;;;;5135518;27;20268;-62
2023/08/31 07:13:36;;;;;;;0.83;0.83;;;;;14.00;95716.00;;;;5134433;27;20727;-62
2023/08/31 07:16:04;;;;;;;1.60;1.10;;;;;14.00;95707.00;;;;5133947;27;20292;-62
2023/08/31 07:18:32;;;;;;;0.93;0.93;;;;;14.20;95714.00;;;;5134097;27;20575;-62
2023/08/31 07:20:59;;;;;;;1.37;1.00;;;;;14.20;95714.00;;;;5134564;27;20252;-62
2023/08/31 07:23:27;;;;;;;1.30;1.20;;;;;14.00;95724.00;;;;5134342;27;20568;-62
2023/08/31 07:25:59;;;;;;;0.80;0.80;;;;;14.00;95723.00;;;;5135124;27;20197;-62
2023/08/31 07:28:27;;;;;;;0.60;0.60;;;;;13.90;95724.00;;;;5134132;27;20193;-62
2023/08/31 07:31:03;;;;;;;0.67;0.67;;;;;13.80;95719.00;;;;5135362;27;20648;-62
2023/08/31 07:33:31;;;;;;;1.00;1.00;;;;;13.90;95718.00;;;;5129485;27;20720;-62
2023/08/31 07:35:59;;;;;;;0.77;0.77;;;;;14.00;95721.00;;;;5132869;27;20201;-63
2023/08/31 07:38:27;;;;;;;0.90;0.90;;;;;14.10;95732.00;;;;5133066;27;20227;-63
2023/08/31 07:40:56;;;;;;;0.83;0.80;;;;;13.80;95719.00;;;;5134691;27;20205;-62
2023/08/31 07:43:27;;;;;;;1.07;1.00;;;;;14.10;95727.00;;;;5134521;27;20200;-62
2023/08/31 07:45:55;;;;;;;0.67;0.67;;;;;14.20;95732.00;;;;5132744;27;20237;-63
2023/08/31 07:48:22;;;;;;;0.87;0.87;;;;;14.00;95730.00;;;;5132454;27;20212;-62
2023/08/31 07:50:50;;;;;;;0.50;0.50;;;;;14.00;95740.00;;;;5134156;27;20186;-62
2023/08/31 07:53:18;;;;;;;0.60;0.60;;;;;14.00;95739.00;;;;5134353;27;20189;-62
2023/08/31 07:55:54;;;;;;;0.90;0.90;;;;;14.00;95739.00;;;;5134260;27;20197;-62
2023/08/31 07:58:23;;;;;;;0.70;0.70;;;;;14.40;95746.00;;;;5133943;27;20599;-62
2023/08/31 08:00:53;;;;;;;1.30;0.93;;;;;14.30;95744.00;;;;5133700;27;20209;-62
2023/08/31 08:03:20;;;;;;;0.73;0.73;;;;;14.40;95742.00;;;;5132086;27;20197;-62
2023/08/31 08:05:47;;;;;;;5.73;1.63;;;;;14.70;95756.00;;;;5133767;27;20213;-62
2023/08/31 08:08:15;;;;;;;0.80;0.80;;;;;15.00;95749.00;;;;5132627;27;20245;-62
2023/08/31 08:10:43;;;;;;;0.43;0.43;;;;;14.90;95756.00;;;;5132287;27;20194;-62
2023/08/31 08:13:11;;;;;;;0.80;0.80;;;;;15.10;95757.00;;;;5133924;27;20250;-62
2023/08/31 08:15:39;;;;;;;0.97;0.97;;;;;15.00;95769.00;;;;5134183;27;20193;-62
2023/08/31 08:18:07;;;;;;;1.27;0.90;;;;;14.70;95764.00;;;;5133148;27;20672;-62
2023/08/31 08:20:34;;;;;;;0.60;0.60;;;;;14.70;95767.00;;;;5133357;27;20221;-62
2023/08/31 08:23:02;;;;;;;0.87;0.87;;;;;15.00;95765.00;;;;5133071;27;20224;-62
2023/08/31 08:25:29;;;;;;;0.93;0.93;;;;;14.90;95763.00;;;;5133210;27;20201;-62
2023/08/31 08:27:57;;;;;;;0.83;0.83;;;;;15.10;95758.00;;;;5133468;27;20221;-62
2023/08/31 08:30:24;;;;;;;0.97;0.97;;;;;14.90;95768.00;;;;5129601;27;21689;-62
2023/08/31 08:32:53;;;;;;;1.33;1.23;;;;;15.00;95778.00;;;;5131623;27;21236;-63
2023/08/31 08:35:20;;;;;;;0.77;0.77;;;;;14.80;95781.00;;;;5133128;27;20206;-63
2023/08/31 08:37:48;;;;;;;0.80;0.80;;;;;14.80;95778.00;;;;5133434;27;20210;-62
2023/08/31 08:40:15;;;;;;;0.70;0.70;;;;;14.80;95773.00;;;;5133314;27;20198;-62
2023/08/31 08:42:44;;;;;;;13.03;1.27;;;;;14.90;95775.00;;;;5132317;27;20696;-62
2023/08/31 08:45:16;;;;;;;0.73;0.73;;;;;15.00;95771.00;;;;5132677;27;20197;-62
2023/08/31 08:47:45;;;;;;;5.20;1.43;;;;;15.20;95775.00;;;;5133155;27;20721;-62
2023/08/31 08:50:14;;;;;;;1.27;1.20;;;;;15.10;95800.00;;;;5132536;27;20197;-62
2023/08/31 08:52:42;;;;;;;0.80;0.80;;;;;15.40;95792.00;;;;5133396;27;20242;-62
2023/08/31 08:55:10;;;;;;;0.60;0.60;;;;;15.20;95785.00;;;;5132008;27;20690;-62
2023/08/31 08:57:38;;;;;;;0.90;0.90;;;;;15.40;95798.00;;;;5133401;27;20209;-62
2023/08/31 09:00:07;;;;;;;10.40;1.27;;;;;15.40;95785.00;;;;5132505;27;20253;-62
2023/08/31 09:02:35;;;;;;;0.60;0.60;;;;;15.60;95792.00;;;;5132797;27;20209;-62
2023/08/31 09:05:03;;;;;;;0.60;0.60;;;;;15.50;95794.00;;;;5128666;27;20209;-62
2023/08/31 09:07:36;;;;;;;0.63;0.63;;;;;15.80;95800.00;;;;5132519;27;20232;-62
2023/08/31 09:10:05;;;;;;;1.33;1.23;;;;;15.70;95805.00;;;;5128686;27;20181;-62
2023/08/31 09:12:37;;;;;;;0.77;0.77;;;;;15.70;95810.00;;;;5132236;27;20193;-62
2023/08/31 09:15:05;;;;;;;1.07;1.07;;;;;15.40;95808.00;;;;5131733;27;20675;-62
2023/08/31 09:17:40;;;;;;;0.70;0.70;;;;;15.20;95829.00;;;;5132435;27;20217;-62
2023/08/31 09:20:09;;;;;;;0.70;0.70;;;;;15.00;95830.00;;;;5132251;27;20223;-62
2023/08/31 09:22:37;;;;;;;0.73;0.73;;;;;15.30;95816.00;;;;5131280;27;20213;-62
2023/08/31 09:25:05;;;;;;;0.60;0.60;;;;;15.40;95818.00;;;;5132288;27;20197;-62
2023/08/31 09:27:40;;;;;;;2.73;0.97;;;;;15.30;95807.00;;;;5130992;27;20220;-62
2023/08/31 09:30:08;;;;;;;0.50;0.50;;;;;15.70;95815.00;;;;5131615;27;20261;-62
2023/08/31 09:32:36;;;;;;;1.73;1.23;;;;;15.60;95819.00;;;;5133415;27;20200;-62
2023/08/31 09:35:10;;;;;;;4.27;1.10;;;;;15.50;95819.00;;;;5128052;27;20201;-62
2023/08/31 09:37:39;;;;;;;0.83;0.83;;;;;15.70;95812.00;;;;5132570;27;20215;-62
2023/08/31 09:40:07;;;;;;;0.70;0.70;;;;;16.10;95829.00;;;;5130575;27;20205;-62
2023/08/31 09:42:38;;;;;;;0.60;0.60;;;;;15.80;95824.00;;;;5132420;28;20304;-62
2023/08/31 09:45:07;;;;;;;0.70;0.70;;;;;15.80;95820.00;;;;5132037;28;20250;-62
2023/08/31 09:47:35;;;;;;;1.47;1.37;;;;;15.80;95812.00;;;;5132064;27;20723;-62
2023/08/31 09:50:04;;;;;;;1.40;1.30;;;;;16.10;95826.00;;;;5132047;28;20193;-62
2023/08/31 09:52:31;;;;;;;0.80;0.80;;;;;16.00;95821.00;;;;5132056;27;20221;-62
2023/08/31 09:55:03;;;;;;;0.80;0.80;;;;;16.30;95824.00;;;;5130853;28;20194;-62
2023/08/31 09:57:31;;;;;;;0.70;0.70;;;;;16.30;95840.00;;;;5131289;28;20740;-62
2023/08/31 10:00:00;;;;;;;0.70;0.70;;;;;16.30;95836.00;;;;5130188;28;20242;-62
2023/08/31 10:02:29;;;;;;;0.80;0.80;;;;;16.50;95819.00;;;;5133324;27;20217;-62
2023/08/31 10:04:57;;;;;;;0.73;0.73;;;;;16.50;95848.00;;;;5136084;27;20656;-62
2023/08/31 10:07:25;;;;;;;1.27;1.27;;;;;16.60;95843.00;;;;5136439;27;20228;-62
2023/08/31 10:09:53;;;;;;;2.37;1.20;;;;;16.30;95817.00;;;;5135611;27;20195;-62
2023/08/31 10:12:23;;;;;;;4.10;1.10;;;;;16.50;95834.00;;;;5136273;27;20195;-62
2023/08/31 10:14:52;;;;;;;5.37;1.17;;;;;16.60;95843.00;;;;5135741;27;20200;-62
2023/08/31 10:17:21;;;;;;;0.60;0.60;;;;;16.70;95840.00;;;;5136304;27;20221;-62
2023/08/31 10:19:49;;;;;;;0.70;0.70;;;;;16.30;95838.00;;;;5135500;27;20227;-62
2023/08/31 10:22:17;;;;;;;0.83;0.83;;;;;16.40;95836.00;;;;5136180;27;20209;-63
2023/08/31 10:25:03;;;;;;;0.60;0.60;;;;;16.60;95842.00;;;;5135943;27;20193;-63
2023/08/31 10:27:38;;;;;;;0.97;0.97;;;;;16.30;95839.00;;;;5132110;27;20221;-63
2023/08/31 10:30:25;;;;;;;0.70;0.70;;;;;16.80;95836.00;;;;5136025;27;20291;-63
2023/08/31 10:33:30;;;;;;;0.70;0.70;;;;;17.10;95818.00;;;;5135847;27;20185;-63
2023/08/31 10:35:58;;;;;;;1.00;1.00;;;;;17.10;95824.00;;;;5084792;27;20201;-63
2023/08/31 10:38:27;;;;;;;1.30;1.10;;;;;17.30;95806.00;;;;5135237;27;20663;-63
2023/08/31 10:41:21;;;;;;;2.60;1.17;;;;;17.80;95836.00;;;;5133894;27;20542;-62
2023/08/31 10:43:51;;;;;;;1.57;1.47;;;;;18.30;95799.00;;;;5134727;27;20185;-62
2023/08/31 10:46:32;;;;;;;3.30;1.13;;;;;18.70;95814.00;;;;5135536;27;20224;-62
2023/08/31 10:49:02;;;;;;;5.60;0.90;;;;;18.70;95798.00;;;;5134132;27;20199;-62
2023/08/31 10:51:32;;;;;;;1.07;0.97;;;;;19.00;95796.00;;;;5135516;27;20194;-62
2023/08/31 10:54:09;;;;;;;7.13;1.07;;;;;18.80;95804.00;;;;5133734;27;20209;-62
2023/08/31 10:56:54;;;;;;;2.73;1.43;;;;;18.70;95828.00;;;;5135392;27;20220;-62
2023/08/31 10:59:23;;;;;;;6.83;2.00;;;;;18.10;95826.00;;;;5131713;27;20254;-62
2023/08/31 11:01:54;;;;;;;1.10;0.90;;;;;17.90;95812.00;;;;5135640;27;20205;-62
2023/08/31 11:04:24;;;;;;;0.47;0.47;;;;;17.40;95823.00;;;;5134717;27;20197;-62
2023/08/31 11:07:16;;;;;;;0.70;0.70;;;;;17.30;95833.00;;;;5135756;27;20837;-64
2023/08/31 11:09:46;;;;;;;1.10;1.03;;;;;17.20;95825.00;;;;5134941;27;20186;-64
2023/08/31 11:12:14;;;;;;;0.70;0.70;;;;;17.20;95818.00;;;;5135607;27;20185;-64
2023/08/31 11:14:43;;;;;;;1.70;1.60;;;;;17.30;95814.00;;;;5135447;27;20190;-64
2023/08/31 11:17:11;;;;;;;0.50;0.50;;;;;17.60;95824.00;;;;5135445;27;20217;-64
2023/08/31 11:19:39;;;;;;;2.67;1.57;;;;;17.60;95824.00;;;;5134983;27;20193;-62
2023/08/31 11:22:09;;;;;;;1.00;0.93;;;;;17.60;95819.00;;;;5134875;27;20209;-63
2023/08/31 11:24:37;;;;;;;0.70;0.70;;;;;17.50;95816.00;;;;5133529;27;20184;-62
2023/08/31 11:27:08;;;;;;;0.60;0.60;;;;;17.90;95799.00;;;;5134589;27;20216;-62
2023/08/31 11:29:39;;;;;;;5.53;1.10;;;;;18.40;95823.00;;;;5133735;27;20200;-62
2023/08/31 11:32:08;;;;;;;1.30;1.17;;;;;18.20;95823.00;;;;5133389;27;20194;-62
2023/08/31 11:34:38;;;;;;;0.77;0.77;;;;;17.70;95830.00;;;;5134220;27;20205;-62
2023/08/31 11:37:06;;;;;;;0.73;0.73;;;;;17.70;95836.00;;;;5134087;27;20213;-62
2023/08/31 11:39:34;;;;;;;2.10;1.27;;;;;18.00;95825.00;;;;5134309;27;20204;-61
2023/08/31 11:42:01;;;;;;;0.80;0.80;;;;;18.10;95820.00;;;;5134372;27;20217;-61
2023/08/31 11:44:29;;;;;;;0.70;0.70;;;;;18.50;95823.00;;;;5134073;27;20193;-61
2023/08/31 11:46:56;;;;;;;0.47;0.47;;;;;18.10;95822.00;;;;5133973;27;20217;-61
2023/08/31 11:49:27;;;;;;;0.50;0.50;;;;;17.90;95824.00;;;;5134464;27;20197;-61
2023/08/31 11:51:55;;;;;;;0.83;0.70;;;;;18.30;95822.00;;;;5134255;27;20178;-61
2023/08/31 11:54:25;;;;;;;0.70;0.70;;;;;18.00;95816.00;;;;5133952;27;20193;-61
2023/08/31 11:56:53;;;;;;;0.90;0.90;;;;;18.00;95822.00;;;;5133816;27;20210;-61
2023/08/31 11:59:22;;;;;;;0.40;0.40;;;;;18.20;95816.00;;;;5134010;27;20201;-61
2023/08/31 12:01:51;;;;;;;0.90;0.90;;;;;18.30;95811.00;;;;5134645;27;20700;-62
2023/08/31 12:04:23;;;;;;;0.40;0.40;;;;;18.40;95805.00;;;;5133436;27;20205;-62
2023/08/31 12:06:54;;;;;;;0.73;0.73;;;;;18.70;95809.00;;;;5133093;27;20274;-62
2023/08/31 12:09:22;;;;;;;1.00;1.00;;;;;18.40;95813.00;;;;5133973;27;20200;-62
2023/08/31 12:11:52;;;;;;;1.60;1.27;;;;;18.30;95814.00;;;;5133681;27;20190;-62
2023/08/31 12:14:21;;;;;;;0.80;0.80;;;;;18.50;95810.00;;;;5133553;27;20251;-62
2023/08/31 12:16:49;;;;;;;0.73;0.67;;;;;18.50;95816.00;;;;5134124;27;20612;-62
2023/08/31 12:19:17;;;;;;;0.70;0.70;;;;;18.30;95826.00;;;;5133497;27;20247;-62
2023/08/31 12:21:46;;;;;;;0.70;0.70;;;;;18.00;95817.00;;;;5133770;27;20224;-62
2023/08/31 12:24:16;;;;;;;3.50;1.00;;;;;17.90;95817.00;;;;5133077;27;20664;-62
2023/08/31 12:26:44;;;;;;;0.67;0.67;;;;;17.80;95826.00;;;;5132145;27;20225;-62